Time;durP1;ratioP1;P1;durP2;ratioP2;P2;SDS_P1;SDS_P2;PMS_P1;PMS_P2;Temp;Humidity;BMP_temperature;BMP_pressure;BME280_temperature;BME280_humidity;BME280_pressure;Samples;Min_cycle;Max_cycle;Signal;HPM_P1;HPM_P2
2023/12/17 00:00:15;;;;;;;27.08;14.05;;;;;;;7.14;100.00;103537.66;5012805;28;20784;-72
2023/12/17 00:02:41;;;;;;;25.05;11.80;;;;;;;7.05;100.00;103538.06;5017504;28;20042;-73
2023/12/17 00:05:07;;;;;;;31.83;13.32;;;;;;;7.11;100.00;103539.53;5012188;28;20049;-72
2023/12/17 00:07:33;;;;;;;27.27;12.70;;;;;;;7.13;100.00;103529.97;5011077;28;20049;-72
2023/12/17 00:09:59;;;;;;;23.40;13.20;;;;;;;7.06;100.00;103538.88;5016810;28;20100;-72
2023/12/17 00:12:25;;;;;;;27.20;13.27;;;;;;;7.08;100.00;103555.97;5017362;28;20068;-72
2023/12/17 00:14:50;;;;;;;31.48;13.55;;;;;;;7.13;100.00;103551.44;5012358;28;20038;-72
2023/12/17 00:17:15;;;;;;;29.25;13.48;;;;;;;7.12;100.00;103548.94;5012904;28;20042;-72
2023/12/17 00:19:41;;;;;;;30.20;13.57;;;;;;;7.07;100.00;103554.31;4996660;28;20049;-72
2023/12/17 00:22:06;;;;;;;28.85;12.95;;;;;;;7.08;100.00;103561.13;5008343;28;20042;-73
2023/12/17 00:24:32;;;;;;;26.40;12.70;;;;;;;7.09;100.00;103567.97;5016263;28;20037;-75
2023/12/17 00:26:57;;;;;;;26.98;12.80;;;;;;;7.13;100.00;103558.34;4993753;28;20041;-72
2023/12/17 00:29:23;;;;;;;23.52;12.75;;;;;;;7.11;100.00;103555.84;4991922;28;20509;-72
2023/12/17 00:31:49;;;;;;;23.67;12.18;;;;;;;7.05;100.00;103556.09;5013329;28;20481;-73
2023/12/17 00:34:14;;;;;;;26.90;12.32;;;;;;;7.11;100.00;103545.50;5002457;28;20033;-73
2023/12/17 00:36:40;;;;;;;25.83;11.60;;;;;;;7.11;100.00;103545.50;5009517;28;20034;-72
2023/12/17 00:39:05;;;;;;;27.02;12.43;;;;;;;7.15;100.00;103548.81;5014676;28;20444;-72
2023/12/17 00:41:31;;;;;;;30.30;12.77;;;;;;;7.22;100.00;103545.06;5012955;28;20042;-72
2023/12/17 00:43:57;;;;;;;28.52;12.75;;;;;;;7.16;100.00;103535.84;5010591;28;20076;-72
2023/12/17 00:46:22;;;;;;;23.00;10.90;;;;;;;7.07;100.00;103536.25;5005252;28;20058;-72
2023/12/17 00:48:48;;;;;;;25.30;12.50;;;;;;;7.07;100.00;103536.25;5015257;28;20408;-73
2023/12/17 00:51:14;;;;;;;23.02;12.85;;;;;;;7.11;100.00;103526.63;5012036;28;20040;-73
2023/12/17 00:53:39;;;;;;;28.35;12.98;;;;;;;7.05;100.00;103520.00;5013936;28;20512;-73
2023/12/17 00:56:05;;;;;;;25.35;12.48;;;;;;;7.12;100.00;103521.41;5013273;28;20611;-73
2023/12/17 00:58:31;;;;;;;29.77;12.15;;;;;;;7.11;100.00;103524.88;5013863;28;20048;-73
2023/12/17 01:00:56;;;;;;;25.60;13.38;;;;;;;7.08;100.00;103516.44;4997479;28;20061;-73
2023/12/17 01:03:21;;;;;;;26.90;12.90;;;;;;;7.05;100.00;103511.41;5014575;28;20046;-72
2023/12/17 01:05:47;;;;;;;27.67;14.07;;;;;;;7.09;100.00;103516.38;5009758;28;20133;-73
2023/12/17 01:08:12;;;;;;;27.05;13.18;;;;;;;7.00;100.00;103515.00;5004772;28;20034;-72
2023/12/17 01:10:38;;;;;;;25.63;13.50;;;;;;;7.05;100.00;103514.81;5012143;28;20041;-72
2023/12/17 01:13:04;;;;;;;31.52;13.43;;;;;;;7.04;100.00;103514.88;5009282;28;20034;-73
2023/12/17 01:15:29;;;;;;;30.13;13.85;;;;;;;7.02;100.00;103520.09;5013457;28;20489;-72
2023/12/17 01:17:54;;;;;;;31.45;14.90;;;;;;;7.09;100.00;103525.84;5009061;28;20805;-72
2023/12/17 01:20:20;;;;;;;29.98;13.95;;;;;;;7.09;100.00;103526.69;5003623;28;20593;-72
2023/12/17 01:22:46;;;;;;;29.63;14.13;;;;;;;7.05;100.00;103519.16;5009819;28;20033;-72
2023/12/17 01:25:11;;;;;;;26.05;13.32;;;;;;;7.14;100.00;103523.88;5009810;28;20068;-73
2023/12/17 01:27:36;;;;;;;26.83;14.05;;;;;;;7.05;100.00;103534.63;5012126;28;20061;-73
2023/12/17 01:30:02;;;;;;;32.65;14.82;;;;;;;7.01;100.00;103545.06;5013142;28;20038;-72
2023/12/17 01:32:28;;;;;;;28.90;14.18;;;;;;;7.01;100.00;103545.06;5012647;28;20584;-72
2023/12/17 01:34:53;;;;;;;27.73;14.20;;;;;;;6.97;100.00;103546.13;5006955;28;20045;-73
2023/12/17 01:37:19;;;;;;;25.92;13.80;;;;;;;7.02;100.00;103536.41;5005854;28;20503;-72
2023/12/17 01:39:44;;;;;;;26.70;13.48;;;;;;;7.03;100.00;103526.97;5012433;28;20532;-72
2023/12/17 01:42:09;;;;;;;26.55;13.23;;;;;;;7.02;100.00;103530.44;5009247;28;20057;-72
2023/12/17 01:44:35;;;;;;;26.75;14.23;;;;;;;6.95;100.00;103539.31;5007502;28;20037;-72
2023/12/17 01:47:00;;;;;;;31.05;13.88;;;;;;;7.02;100.00;103533.84;5009403;28;20072;-72
2023/12/17 01:49:26;;;;;;;23.92;13.38;;;;;;;6.95;100.00;103542.78;5010667;28;20018;-71
2023/12/17 01:51:52;;;;;;;26.15;15.20;;;;;;;6.98;100.00;103540.03;5007853;28;20392;-72
2023/12/17 01:54:18;;;;;;;28.70;14.63;;;;;;;7.01;100.00;103545.06;5010875;28;20030;-72
2023/12/17 01:56:44;;;;;;;26.00;13.80;;;;;;;7.05;100.00;103544.97;5015532;28;20035;-72
2023/12/17 01:59:09;;;;;;;28.92;15.55;;;;;;;6.97;100.00;103537.56;5013001;28;20099;-72
2023/12/17 02:01:34;;;;;;;32.80;15.93;;;;;;;7.09;100.00;103525.84;5014667;28;20145;-72
2023/12/17 02:04:05;;;;;;;28.08;14.75;;;;;;;7.01;100.00;103529.59;5009280;28;20555;-72
2023/12/17 02:06:30;;;;;;;33.95;15.15;;;;;;;7.00;100.00;103539.97;5014262;28;20038;-72
2023/12/17 02:08:56;;;;;;;30.10;14.65;;;;;;;6.96;100.00;103552.16;5012724;28;20060;-72
2023/12/17 02:11:21;;;;;;;30.83;14.32;;;;;;;6.91;100.00;103554.13;5009804;28;20089;-72
2023/12/17 02:13:47;;;;;;;31.08;15.38;;;;;;;6.92;100.00;103555.78;5011459;28;20026;-72
2023/12/17 02:16:13;;;;;;;30.40;14.77;;;;;;;6.95;100.00;103557.38;5009737;28;20044;-71
2023/12/17 02:18:38;;;;;;;28.27;14.93;;;;;;;6.98;100.00;103541.78;5010243;28;20026;-72
2023/12/17 02:21:04;;;;;;;25.60;14.55;;;;;;;6.94;100.00;103550.56;5009507;28;20509;-72
2023/12/17 02:23:30;;;;;;;26.30;14.23;;;;;;;7.02;100.00;103540.75;5007281;28;20037;-72
2023/12/17 02:25:55;;;;;;;37.85;16.30;;;;;;;6.98;100.00;103542.63;5002175;28;20067;-73
2023/12/17 02:28:21;;;;;;;31.45;15.35;;;;;;;6.96;100.00;103544.44;5006961;28;20048;-72
2023/12/17 02:30:46;;;;;;;29.00;14.68;;;;;;;6.93;100.00;103551.47;4997775;28;20038;-72
2023/12/17 02:33:12;;;;;;;33.83;14.80;;;;;;;6.93;100.00;103544.56;5008088;28;20030;-72
2023/12/17 02:35:37;;;;;;;27.17;13.48;;;;;;;6.88;100.00;103538.78;5013927;28;20033;-72
2023/12/17 02:38:03;;;;;;;30.23;14.77;;;;;;;6.92;100.00;103539.47;5009371;28;20688;-72
2023/12/17 02:40:28;;;;;;;26.92;13.52;;;;;;;6.87;100.00;103539.66;5004652;28;20575;-72
2023/12/17 02:42:54;;;;;;;30.38;14.77;;;;;;;6.87;100.00;103534.50;4990329;28;20416;-72
2023/12/17 02:45:19;;;;;;;26.85;13.43;;;;;;;6.87;100.00;103526.75;5009182;28;20060;-72
2023/12/17 02:47:45;;;;;;;27.60;13.73;;;;;;;6.94;100.00;103520.44;5013573;28;20370;-72
2023/12/17 02:50:10;;;;;;;31.33;13.30;;;;;;;6.97;100.00;103510.00;5009006;28;20527;-72
2023/12/17 02:52:36;;;;;;;28.90;14.18;;;;;;;6.90;100.00;103506.00;4996341;28;20033;-72
2023/12/17 02:55:01;;;;;;;29.65;13.63;;;;;;;6.94;100.00;103509.28;5009300;28;20045;-72
2023/12/17 02:57:28;;;;;;;28.95;13.50;;;;;;;6.90;100.00;103516.31;5009915;28;20040;-72
2023/12/17 02:59:54;;;;;;;28.58;13.35;;;;;;;6.91;100.00;103532.63;5012808;28;20044;-72
2023/12/17 03:02:20;;;;;;;29.48;13.00;;;;;;;7.00;100.00;103519.34;5013232;28;20088;-72
2023/12/17 03:04:46;;;;;;;25.98;14.07;;;;;;;6.91;100.00;103515.44;5012401;28;20038;-72
2023/12/17 03:07:11;;;;;;;25.85;13.75;;;;;;;6.99;100.00;103510.78;5016120;28;20026;-72
2023/12/17 03:09:36;;;;;;;23.58;12.65;;;;;;;6.91;100.00;103514.56;5010739;28;20444;-72
2023/12/17 03:12:03;;;;;;;28.20;14.05;;;;;;;6.99;100.00;103503.03;5008060;28;20025;-72
2023/12/17 03:14:31;;;;;;;23.48;12.50;;;;;;;6.96;100.00;103510.06;5013413;28;20030;-72
2023/12/17 03:16:56;;;;;;;24.52;12.90;;;;;;;6.87;100.00;103507.88;5011036;28;20033;-72
2023/12/17 03:19:21;;;;;;;24.52;13.38;;;;;;;6.89;100.00;103508.66;5014405;28;20042;-72
2023/12/17 03:21:47;;;;;;;24.05;13.10;;;;;;;6.85;100.00;103507.94;5011346;28;20042;-72
2023/12/17 03:24:12;;;;;;;28.70;12.68;;;;;;;6.86;100.00;103519.13;5017008;28;20044;-71
2023/12/17 03:26:38;;;;;;;27.67;13.38;;;;;;;6.86;100.00;103511.38;5013482;28;20041;-72
2023/12/17 03:29:03;;;;;;;31.67;13.35;;;;;;;7.00;100.00;103509.84;5013018;28;20084;-72
2023/12/17 03:31:29;;;;;;;27.35;12.35;;;;;;;6.92;100.00;103493.88;5016706;28;20079;-72
2023/12/17 03:33:54;;;;;;;29.92;14.05;;;;;;;6.93;100.00;103500.72;5022392;28;20083;-72
2023/12/17 03:36:19;;;;;;;27.60;13.25;;;;;;;6.89;100.00;103499.16;5009609;28;20708;-72
2023/12/17 03:38:46;;;;;;;25.13;12.75;;;;;;;6.89;100.00;103495.75;5022007;28;20030;-72
2023/12/17 03:41:25;;;;;;;22.65;12.90;;;;;;;6.84;100.00;103498.53;5015113;28;20557;-72
2023/12/17 03:43:53;;;;;;;29.00;12.65;;;;;;;6.87;100.00;103489.81;5019896;28;20037;-72
2023/12/17 03:46:19;;;;;;;27.27;13.85;;;;;;;6.78;100.00;103491.03;5016552;28;20069;-71
2023/12/17 03:48:44;;;;;;;31.83;14.80;;;;;;;6.79;100.00;103485.81;5007918;28;20136;-71
2023/12/17 03:51:10;;;;;;;25.95;13.02;;;;;;;6.84;100.00;103483.06;5015825;28;20993;-72
2023/12/17 03:53:35;;;;;;;29.67;13.48;;;;;;;6.97;100.00;103480.78;5005745;28;20105;-71
2023/12/17 03:56:01;;;;;;;28.67;13.73;;;;;;;6.95;100.00;103483.44;5010371;28;20034;-73
2023/12/17 03:58:27;;;;;;;27.45;13.85;;;;;;;6.90;100.00;103481.97;5002319;28;22054;-72
2023/12/17 04:00:53;;;;;;;27.23;13.75;;;;;;;6.80;100.00;103476.38;5013670;28;20124;-72
2023/12/17 04:03:19;;;;;;;31.17;14.13;;;;;;;6.76;100.00;103474.78;5011522;28;20114;-71
2023/12/17 04:05:44;;;;;;;29.00;13.75;;;;;;;6.83;100.00;103477.03;5016610;28;20040;-71
2023/12/17 04:08:10;;;;;;;25.20;13.93;;;;;;;6.74;100.00;103476.59;5016489;28;20034;-72
2023/12/17 04:10:35;;;;;;;28.50;13.10;;;;;;;6.75;100.00;103479.13;4997332;28;20029;-72
2023/12/17 04:13:01;;;;;;;29.00;14.25;;;;;;;6.67;100.00;103475.19;4994829;28;20038;-71
2023/12/17 04:15:26;;;;;;;26.83;14.25;;;;;;;6.81;100.00;103478.84;5015645;28;20401;-72
2023/12/17 04:17:52;;;;;;;23.50;14.18;;;;;;;6.89;100.00;103467.38;4999702;28;20041;-72
2023/12/17 04:20:18;;;;;;;30.13;13.10;;;;;;;6.75;100.00;103471.38;5018520;28;20041;-72
2023/12/17 04:22:43;;;;;;;26.40;13.88;;;;;;;6.71;100.00;103472.44;5016437;28;20110;-71
2023/12/17 04:25:09;;;;;;;29.70;13.93;;;;;;;6.66;100.00;103476.09;5015677;28;20041;-71
2023/12/17 04:27:34;;;;;;;26.50;14.55;;;;;;;6.65;100.00;103469.25;5011976;28;20041;-72
2023/12/17 04:30:00;;;;;;;22.42;12.75;;;;;;;6.61;100.00;103466.81;5009283;28;20057;-72
2023/12/17 04:32:25;;;;;;;28.35;12.82;;;;;;;6.61;100.00;103474.56;5014216;28;20061;-72
2023/12/17 04:34:55;;;;;;;24.80;13.05;;;;;;;6.66;100.00;103468.38;5016078;28;20042;-72
2023/12/17 04:37:22;;;;;;;30.35;14.05;;;;;;;6.59;100.00;103466.06;5014125;28;20034;-72
2023/12/17 04:39:48;;;;;;;26.73;12.68;;;;;;;6.58;100.00;103463.53;5010291;28;20452;-72
2023/12/17 04:42:14;;;;;;;25.80;13.77;;;;;;;6.71;100.00;103454.38;5011745;28;20029;-72
2023/12/17 04:44:39;;;;;;;25.15;12.85;;;;;;;6.60;100.00;103452.25;5009146;28;20181;-72
2023/12/17 04:47:05;;;;;;;23.20;12.55;;;;;;;6.74;100.00;103455.97;5011439;28;20018;-71
2023/12/17 04:49:30;;;;;;;26.17;12.95;;;;;;;6.63;100.00;103453.88;4994789;28;20034;-72
2023/12/17 04:51:56;;;;;;;24.75;13.00;;;;;;;6.60;100.00;103457.41;5013099;28;20538;-71
2023/12/17 04:54:21;;;;;;;30.58;13.68;;;;;;;6.55;100.00;103459.34;5012142;28;20037;-72
2023/12/17 04:56:47;;;;;;;25.65;13.60;;;;;;;6.52;100.00;103463.81;5013671;28;20025;-72
2023/12/17 04:59:12;;;;;;;26.70;13.63;;;;;;;6.52;100.00;103463.81;5014086;28;20033;-71
2023/12/17 05:01:37;;;;;;;27.42;13.93;;;;;;;6.53;100.00;103450.81;5019536;28;20038;-72
2023/12/17 05:04:03;;;;;;;28.95;13.50;;;;;;;6.48;100.00;103452.78;5010766;28;20045;-71
2023/12/17 05:06:28;;;;;;;29.00;13.70;;;;;;;6.42;100.00;103447.88;5014032;28;20042;-72
2023/12/17 05:08:54;;;;;;;23.67;12.85;;;;;;;6.41;100.00;103441.03;5010059;28;20038;-72
2023/12/17 05:11:19;;;;;;;23.17;13.00;;;;;;;6.42;100.00;103435.84;5009185;28;20034;-71
2023/12/17 05:13:45;;;;;;;28.15;13.30;;;;;;;6.46;100.00;103431.38;5006446;28;20046;-71
2023/12/17 05:16:10;;;;;;;28.20;13.70;;;;;;;6.46;100.00;103427.94;5005552;28;20053;-72
2023/12/17 05:18:36;;;;;;;28.67;13.18;;;;;;;6.43;100.00;103439.25;5010153;28;20037;-72
2023/12/17 05:21:01;;;;;;;26.67;13.90;;;;;;;6.39;100.00;103437.69;5015304;28;20110;-72
2023/12/17 05:23:26;;;;;;;25.23;13.10;;;;;;;6.38;100.00;103436.84;5011164;28;20065;-72
2023/12/17 05:25:52;;;;;;;28.05;15.00;;;;;;;6.31;100.00;103434.59;5008462;28;20047;-72
2023/12/17 05:28:17;;;;;;;27.02;13.80;;;;;;;6.36;100.00;103443.81;5013435;28;20045;-71
2023/12/17 05:30:43;;;;;;;27.13;13.18;;;;;;;6.38;100.00;103441.16;5013321;28;20034;-71
2023/12/17 05:33:08;;;;;;;26.90;13.73;;;;;;;6.34;100.00;103437.03;5010054;28;20117;-71
2023/12/17 05:35:34;;;;;;;26.63;13.38;;;;;;;6.31;100.00;103426.84;5008406;28;20038;-71
2023/12/17 05:37:59;;;;;;;26.23;13.40;;;;;;;6.38;100.00;103426.53;5011764;28;20029;-71
2023/12/17 05:40:25;;;;;;;26.13;13.52;;;;;;;6.28;100.00;103429.56;5009104;28;20514;-72
2023/12/17 05:42:50;;;;;;;25.02;13.57;;;;;;;6.29;100.00;103416.63;5011379;28;20249;-72
2023/12/17 05:45:15;;;;;;;31.85;13.98;;;;;;;6.40;100.00;103416.16;5014447;28;20501;-71
2023/12/17 05:47:41;;;;;;;30.08;13.50;;;;;;;6.39;100.00;103423.06;5010855;28;20018;-71
2023/12/17 05:50:08;;;;;;;29.10;14.30;;;;;;;6.26;100.00;103427.06;5010612;28;20096;-71
2023/12/17 05:52:33;;;;;;;31.10;13.30;;;;;;;6.37;100.00;103419.72;5008359;28;20034;-71
2023/12/17 05:54:59;;;;;;;26.90;13.50;;;;;;;6.31;100.00;103427.72;5010356;28;20088;-72
2023/12/17 05:57:24;;;;;;;23.52;12.57;;;;;;;6.27;100.00;103430.47;5014673;28;20045;-72
2023/12/17 05:59:50;;;;;;;27.05;12.90;;;;;;;6.32;100.00;103421.63;5009135;28;20049;-72
2023/12/17 06:02:15;;;;;;;25.77;13.43;;;;;;;6.23;100.00;103424.59;5010344;28;20113;-71
2023/12/17 06:04:41;;;;;;;31.05;13.43;;;;;;;6.30;100.00;103426.03;5009488;28;20428;-72
2023/12/17 06:07:06;;;;;;;27.25;12.60;;;;;;;6.19;100.00;103431.63;5006600;28;20033;-71
2023/12/17 06:09:32;;;;;;;23.88;12.00;;;;;;;6.22;100.00;103435.81;5013666;28;20573;-71
2023/12/17 06:11:57;;;;;;;31.80;13.30;;;;;;;6.22;100.00;103440.97;5009477;28;20068;-72
2023/12/17 06:14:24;;;;;;;27.77;13.48;;;;;;;6.24;100.00;103428.88;4990828;28;20052;-71
2023/12/17 06:16:49;;;;;;;29.17;12.70;;;;;;;6.24;100.00;103434.84;5011011;28;20033;-72
2023/12/17 06:19:15;;;;;;;25.17;12.88;;;;;;;6.19;100.00;103434.19;5010919;28;20118;-71
2023/12/17 06:21:40;;;;;;;30.25;13.55;;;;;;;6.24;100.00;103427.13;4996851;28;20041;-71
2023/12/17 06:24:07;;;;;;;28.85;13.23;;;;;;;6.15;100.00;103429.25;5007251;28;20030;-72
2023/12/17 06:26:35;;;;;;;29.35;13.52;;;;;;;6.26;100.00;103431.38;5008451;28;20124;-71
2023/12/17 06:29:00;;;;;;;25.95;13.48;;;;;;;6.19;100.00;103436.75;5013925;28;20033;-71
2023/12/17 06:31:26;;;;;;;28.70;12.52;;;;;;;6.20;100.00;103433.31;5006844;28;20048;-71
2023/12/17 06:33:53;;;;;;;25.23;12.73;;;;;;;6.28;100.00;103432.97;5009869;28;20041;-72
2023/12/17 06:36:20;;;;;;;27.00;13.80;;;;;;;6.17;100.00;103430.84;5012800;28;20044;-72
2023/12/17 06:38:45;;;;;;;27.77;12.80;;;;;;;6.29;100.00;103432.09;5013272;28;20034;-72
2023/12/17 06:41:10;;;;;;;25.35;11.57;;;;;;;6.19;100.00;103441.09;5003956;28;20056;-73
2023/12/17 06:43:37;;;;;;;25.52;11.73;;;;;;;6.17;100.00;103442.91;5012389;28;20026;-73
2023/12/17 06:46:03;;;;;;;30.02;13.52;;;;;;;6.20;100.00;103443.59;5009254;28;20045;-73
2023/12/17 06:48:30;;;;;;;28.27;12.90;;;;;;;6.12;100.00;103447.38;5007449;28;20172;-72
2023/12/17 06:50:55;;;;;;;26.63;12.57;;;;;;;6.06;100.00;103447.66;5010039;28;20026;-72
2023/12/17 06:53:21;;;;;;;23.95;12.15;;;;;;;6.03;100.00;103441.72;5011146;28;20640;-73
2023/12/17 06:55:46;;;;;;;27.23;12.35;;;;;;;5.99;100.00;103442.75;5013914;28;20369;-72
2023/12/17 06:58:12;;;;;;;27.15;12.73;;;;;;;6.10;100.00;103444.88;5005974;28;20571;-73
2023/12/17 07:00:38;;;;;;;27.05;12.73;;;;;;;6.11;100.00;103459.44;5010853;28;20057;-73
2023/12/17 07:03:03;;;;;;;27.88;13.23;;;;;;;6.12;100.00;103470.56;5009713;28;20056;-71
2023/12/17 07:05:29;;;;;;;28.92;12.95;;;;;;;6.16;100.00;103467.81;5006334;28;20068;-71
2023/12/17 07:07:54;;;;;;;24.33;12.20;;;;;;;6.00;100.00;103459.84;5011130;28;20030;-71
2023/12/17 07:10:20;;;;;;;24.00;11.88;;;;;;;6.05;100.00;103467.41;5010937;28;20046;-71
2023/12/17 07:12:47;;;;;;;27.38;11.60;;;;;;;5.98;100.00;103466.81;5012485;28;20034;-70
2023/12/17 07:15:13;;;;;;;26.00;12.07;;;;;;;5.91;100.00;103467.91;5010500;28;20038;-71
2023/12/17 07:17:38;;;;;;;29.80;11.93;;;;;;;5.95;100.00;103464.38;5012791;28;20451;-71
2023/12/17 07:20:04;;;;;;;23.75;10.98;;;;;;;6.04;100.00;103481.19;5006665;28;20053;-71
2023/12/17 07:22:30;;;;;;;25.08;11.23;;;;;;;6.01;100.00;103482.16;5015486;28;20033;-71
2023/12/17 07:24:55;;;;;;;28.10;12.57;;;;;;;5.91;100.00;103479.97;5004814;28;20381;-71
2023/12/17 07:27:20;;;;;;;27.63;12.30;;;;;;;5.82;100.00;103482.00;5009800;28;20404;-71
2023/12/17 07:29:46;;;;;;;30.83;12.27;;;;;;;5.84;100.00;103480.22;5009894;28;20107;-71
2023/12/17 07:32:11;;;;;;;25.67;10.77;;;;;;;5.88;100.00;103480.94;5010063;28;20038;-71
2023/12/17 07:34:37;;;;;;;25.23;10.95;;;;;;;5.84;100.00;103481.97;5011260;28;20033;-72
2023/12/17 07:37:02;;;;;;;25.05;11.38;;;;;;;5.84;100.00;103485.38;5008263;28;20034;-70
2023/12/17 07:39:28;;;;;;;23.30;11.40;;;;;;;5.87;100.00;103478.41;5012225;28;20213;-71
2023/12/17 07:41:53;;;;;;;24.42;12.27;;;;;;;5.99;100.00;103481.38;5010778;28;20038;-71
2023/12/17 07:44:19;;;;;;;24.92;11.63;;;;;;;5.88;100.00;103480.94;5010625;28;20404;-71
2023/12/17 07:46:44;;;;;;;28.23;13.00;;;;;;;5.77;100.00;103483.09;5010246;28;20404;-71
2023/12/17 07:49:10;;;;;;;29.85;12.48;;;;;;;5.73;100.00;103482.38;5020201;28;20049;-71
2023/12/17 07:51:38;;;;;;;30.05;13.98;;;;;;;5.73;100.00;103479.78;5016999;28;20042;-73
2023/12/17 07:54:04;;;;;;;40.88;21.05;;;;;;;5.77;100.00;103483.09;5014375;28;20038;-74
2023/12/17 07:56:31;;;;;;;30.50;15.75;;;;;;;5.79;100.00;103483.88;5011847;28;20129;-73
2023/12/17 07:58:56;;;;;;;26.67;13.40;;;;;;;5.77;100.00;103490.81;5012845;28;20030;-73
2023/12/17 08:01:29;;;;;;;31.33;13.45;;;;;;;5.84;100.00;103487.09;5015016;28;20041;-74
2023/12/17 08:03:54;;;;;;;25.38;12.40;;;;;;;5.71;100.00;103483.28;5012700;28;20088;-73
2023/12/17 08:06:20;;;;;;;27.15;13.23;;;;;;;5.73;100.00;103484.09;5013958;28;20432;-73
2023/12/17 08:08:45;;;;;;;27.50;11.23;;;;;;;5.70;100.00;103489.38;5015770;28;20026;-73
2023/12/17 08:11:14;;;;;;;25.27;12.57;;;;;;;5.68;100.00;103480.88;5015479;28;20471;-73
2023/12/17 08:13:40;;;;;;;27.33;12.02;;;;;;;5.76;100.00;103482.22;5007406;28;20087;-73
2023/12/17 08:16:05;;;;;;;28.63;11.85;;;;;;;5.75;100.00;103474.59;5014941;28;20524;-73
2023/12/17 08:18:31;;;;;;;25.73;11.57;;;;;;;5.66;100.00;103484.31;5013053;28;21599;-74
2023/12/17 08:20:57;;;;;;;33.00;14.20;;;;;;;5.75;100.00;103483.13;5015298;28;20041;-73
2023/12/17 08:23:23;;;;;;;27.35;12.25;;;;;;;5.73;100.00;103484.94;5011228;28;20477;-74
2023/12/17 08:25:49;;;;;;;25.30;12.15;;;;;;;5.69;100.00;103485.97;5012676;28;20051;-72
2023/12/17 08:28:16;;;;;;;32.75;14.32;;;;;;;5.56;100.00;103477.03;5016257;28;20034;-72
2023/12/17 08:30:43;;;;;;;27.90;11.52;;;;;;;5.54;100.00;103476.22;5009081;28;20176;-72
2023/12/17 08:33:08;;;;;;;26.02;12.95;;;;;;;5.51;100.00;103464.31;5009561;28;20092;-72
2023/12/17 08:35:37;;;;;;;28.60;12.50;;;;;;;5.59;100.00;103471.75;5021986;28;20521;-72
2023/12/17 08:38:05;;;;;;;26.92;12.32;;;;;;;5.49;100.00;103471.25;5017013;28;20071;-72
2023/12/17 08:40:33;;;;;;;33.05;14.30;;;;;;;5.55;100.00;103475.34;5013047;28;20046;-73
2023/12/17 08:43:00;;;;;;;32.30;13.55;;;;;;;5.57;100.00;103483.84;5018611;28;20523;-73
2023/12/17 08:45:25;;;;;;;58.47;26.40;;;;;;;5.56;100.00;103479.59;5017048;28;20034;-72
2023/12/17 08:47:51;;;;;;;37.83;14.85;;;;;;;5.46;100.00;103474.78;4998695;28;20042;-73
2023/12/17 08:50:16;;;;;;;37.58;16.90;;;;;;;5.55;100.00;103480.47;5024673;28;20041;-73
2023/12/17 08:52:42;;;;;;;59.05;29.30;;;;;;;5.62;100.00;103482.75;5015518;28;20037;-72
2023/12/17 08:55:07;;;;;;;46.25;17.33;;;;;;;5.63;100.00;103474.16;5020804;28;20447;-72
2023/12/17 08:57:33;;;;;;;35.38;18.20;;;;;;;5.59;100.00;103470.00;5015488;28;20034;-73
2023/12/17 08:59:58;;;;;;;33.97;15.73;;;;;;;5.56;100.00;103472.72;5011475;28;20045;-73
2023/12/17 09:02:24;;;;;;;35.95;15.48;;;;;;;5.59;100.00;103469.16;5010840;28;20040;-73
2023/12/17 09:04:51;;;;;;;37.95;16.02;;;;;;;5.55;100.00;103470.19;5015922;28;20038;-73
2023/12/17 09:07:17;;;;;;;36.05;15.70;;;;;;;5.61;100.00;103465.66;5007853;28;20506;-72
2023/12/17 09:09:43;;;;;;;37.72;15.85;;;;;;;5.57;100.00;103470.97;5011346;28;20080;-72
2023/12/17 09:12:09;;;;;;;31.13;15.45;;;;;;;5.63;100.00;103479.31;5016146;28;20026;-72
2023/12/17 09:14:35;;;;;;;35.05;14.65;;;;;;;5.53;100.00;103472.81;5010993;28;20041;-72
2023/12/17 09:17:01;;;;;;;42.38;19.63;;;;;;;5.56;100.00;103482.16;5014019;28;20087;-72
2023/12/17 09:19:27;;;;;;;30.60;14.82;;;;;;;5.54;100.00;103478.78;5008590;28;20891;-72
2023/12/17 09:21:52;;;;;;;29.52;14.13;;;;;;;5.38;100.00;103475.97;5010480;28;20033;-72
2023/12/17 09:24:18;;;;;;;31.23;14.23;;;;;;;5.44;100.00;103475.72;5013747;28;20084;-71
2023/12/17 09:26:45;;;;;;;32.60;15.65;;;;;;;5.45;100.00;103478.25;5011699;28;20760;-71
2023/12/17 09:29:10;;;;;;;32.42;15.18;;;;;;;5.45;100.00;103480.00;5012564;28;20041;-71
2023/12/17 09:31:35;;;;;;;31.40;15.13;;;;;;;5.48;100.00;103474.72;5007832;28;20048;-71
2023/12/17 09:34:01;;;;;;;28.27;12.70;;;;;;;5.42;100.00;103475.78;5010767;28;20042;-71
2023/12/17 09:36:27;;;;;;;26.15;11.77;;;;;;;5.53;100.00;103480.53;5011098;28;20083;-71
2023/12/17 09:38:53;;;;;;;24.63;11.27;;;;;;;5.53;100.00;103477.97;5008541;28;20034;-72
2023/12/17 09:41:19;;;;;;;29.17;10.95;;;;;;;5.53;100.00;103469.41;5015371;28;20038;-71
2023/12/17 09:43:45;;;;;;;22.27;10.90;;;;;;;5.49;100.00;103467.84;5020788;28;20037;-71
2023/12/17 09:46:11;;;;;;;24.50;11.68;;;;;;;5.53;100.00;103477.97;5009278;28;20064;-72
2023/12/17 09:48:37;;;;;;;32.38;12.02;;;;;;;5.48;100.00;103479.84;5010255;28;20488;-70
2023/12/17 09:51:03;;;;;;;23.83;11.55;;;;;;;5.51;100.00;103479.75;5012058;28;20521;-72
2023/12/17 09:53:34;;;;;;;24.50;12.10;;;;;;;5.44;100.00;103471.44;5009420;28;20038;-72
2023/12/17 09:55:59;;;;;;;27.92;12.88;;;;;;;5.51;100.00;103473.78;5011251;28;20033;-73
2023/12/17 09:58:28;;;;;;;28.63;11.70;;;;;;;5.52;100.00;103473.72;5012116;28;20408;-72
2023/12/17 10:00:54;;;;;;;25.92;12.10;;;;;;;5.47;100.00;103468.72;5011243;28;20759;-73
2023/12/17 10:03:20;;;;;;;25.63;11.48;;;;;;;5.55;100.00;103478.75;5009564;28;20041;-72
2023/12/17 10:05:50;;;;;;;26.88;12.23;;;;;;;5.51;100.00;103466.88;5000224;28;20459;-73
2023/12/17 10:08:16;;;;;;;23.98;11.00;;;;;;;5.40;100.00;103467.28;5017552;28;20112;-73
2023/12/17 10:10:41;;;;;;;25.70;11.60;;;;;;;5.52;100.00;103460.00;5006712;28;20042;-73
2023/12/17 10:13:07;;;;;;;26.08;12.25;;;;;;;5.53;100.00;103452.22;5010072;28;20038;-73
2023/12/17 10:15:37;;;;;;;28.67;12.73;;;;;;;5.45;100.00;103454.25;5003473;28;20124;-73
2023/12/17 10:18:03;;;;;;;30.55;13.00;;;;;;;5.51;100.00;103461.75;5013706;28;20034;-73
2023/12/17 10:20:30;;;;;;;23.83;10.85;;;;;;;5.44;100.00;103458.56;5011017;28;20042;-73
2023/12/17 10:23:00;;;;;;;23.95;12.57;;;;;;;5.43;100.00;103448.31;5011759;28;20037;-71
2023/12/17 10:25:26;;;;;;;26.23;11.68;;;;;;;5.44;100.00;103450.00;4998592;28;20146;-71
2023/12/17 10:28:00;;;;;;;26.80;12.20;;;;;;;5.52;100.00;103448.00;5009047;28;20069;-70
2023/12/17 10:30:32;;;;;;;21.35;10.60;;;;;;;5.46;100.00;103451.63;5006900;28;20774;-71
2023/12/17 10:33:00;;;;;;;28.38;12.15;;;;;;;5.50;100.00;103449.78;5018862;28;20030;-72
2023/12/17 10:35:27;;;;;;;24.05;12.07;;;;;;;5.52;100.00;103440.25;5009268;28;20033;-71
2023/12/17 10:37:58;;;;;;;29.83;12.60;;;;;;;5.42;100.00;103444.06;5015350;28;20048;-71
2023/12/17 10:40:24;;;;;;;24.45;11.40;;;;;;;5.54;100.00;103442.75;5001858;28;20053;-72
2023/12/17 10:42:53;;;;;;;27.50;12.88;;;;;;;5.52;100.00;103439.41;5002485;28;20437;-71
2023/12/17 10:45:20;;;;;;;21.17;10.95;;;;;;;5.42;100.00;103437.19;5004178;28;20070;-71
2023/12/17 10:48:04;;;;;;;25.48;11.90;;;;;;;5.43;100.00;103436.28;4997267;28;20045;-71
2023/12/17 10:50:29;;;;;;;27.42;11.95;;;;;;;5.40;100.00;103441.53;4983462;28;20083;-71
2023/12/17 10:52:55;;;;;;;26.17;11.35;;;;;;;5.59;100.00;103430.56;5004216;28;20025;-71
2023/12/17 10:55:22;;;;;;;22.48;10.77;;;;;;;5.56;100.00;103434.09;4981492;28;20092;-71
2023/12/17 10:57:54;;;;;;;22.70;10.52;;;;;;;5.63;100.00;103430.41;4985915;28;20049;-72
2023/12/17 11:00:24;;;;;;;21.48;9.93;;;;;;;5.57;100.00;103428.03;4998940;28;20038;-72
2023/12/17 11:02:52;;;;;;;21.48;10.15;;;;;;;5.49;100.00;103429.25;5004836;28;20041;-71